sensor_id;sensor_type;location;lat;lon;timestamp;pressure;altitude;pressure_sealevel;temperature;humidity
58018;BME280;43810;50.860;19.226;2023-07-13T00:01:47;98200.50;;;19.52;95.29
58018;BME280;43810;50.860;19.226;2023-07-13T00:04:16;98205.50;;;19.50;95.53
58018;BME280;43810;50.860;19.226;2023-07-13T00:06:44;98207.44;;;19.49;94.94
58018;BME280;43810;50.860;19.226;2023-07-13T00:09:12;98212.84;;;19.45;94.80
58018;BME280;43810;50.860;19.226;2023-07-13T00:11:39;98210.91;;;19.46;94.81
58018;BME280;43810;50.860;19.226;2023-07-13T00:14:05;98205.94;;;19.44;95.01
58018;BME280;43810;50.860;19.226;2023-07-13T00:16:32;98211.31;;;19.44;95.29
58018;BME280;43810;50.860;19.226;2023-07-13T00:18:58;98216.66;;;19.48;95.72
58018;BME280;43810;50.860;19.226;2023-07-13T00:21:26;98210.06;;;19.60;95.33
58018;BME280;43810;50.860;19.226;2023-07-13T00:23:52;98213.50;;;19.67;95.20
58018;BME280;43810;50.860;19.226;2023-07-13T00:26:18;98218.06;;;19.70;95.28
58018;BME280;43810;50.860;19.226;2023-07-13T00:28:44;98211.50;;;19.75;95.08
58018;BME280;43810;50.860;19.226;2023-07-13T00:31:11;98218.41;;;19.79;94.59
58018;BME280;43810;50.860;19.226;2023-07-13T00:33:37;98229.22;;;19.76;94.62
58018;BME280;43810;50.860;19.226;2023-07-13T00:36:03;98227.25;;;19.80;94.58
58018;BME280;43810;50.860;19.226;2023-07-13T00:38:30;98233.38;;;19.84;94.45
58018;BME280;43810;50.860;19.226;2023-07-13T00:40:56;98240.31;;;19.85;94.34
58018;BME280;43810;50.860;19.226;2023-07-13T00:43:23;98244.06;;;19.95;93.91
58018;BME280;43810;50.860;19.226;2023-07-13T00:48:19;98237.19;;;19.90;94.49
58018;BME280;43810;50.860;19.226;2023-07-13T00:50:49;98231.81;;;19.90;94.45
58018;BME280;43810;50.860;19.226;2023-07-13T00:53:16;98233.75;;;19.86;94.69
58018;BME280;43810;50.860;19.226;2023-07-13T00:55:42;98231.44;;;19.85;95.37
58018;BME280;43810;50.860;19.226;2023-07-13T00:58:08;98234.53;;;19.83;95.50
58018;BME280;43810;50.860;19.226;2023-07-13T01:00:35;98239.91;;;19.87;95.95
58018;BME280;43810;50.860;19.226;2023-07-13T01:03:04;98238.72;;;19.91;96.06
58018;BME280;43810;50.860;19.226;2023-07-13T01:05:32;98221.31;;;19.99;95.49
58018;BME280;43810;50.860;19.226;2023-07-13T01:07:59;98214.00;;;19.96;95.23
58018;BME280;43810;50.860;19.226;2023-07-13T01:10:26;98219.00;;;19.98;95.15
58018;BME280;43810;50.860;19.226;2023-07-13T01:12:52;98221.34;;;19.96;95.16
58018;BME280;43810;50.860;19.226;2023-07-13T01:18:08;98229.44;;;19.92;95.12
58018;BME280;43810;50.860;19.226;2023-07-13T01:20:35;98242.53;;;19.94;95.28
58018;BME280;43810;50.860;19.226;2023-07-13T01:23:10;98241.34;;;19.98;95.14
58018;BME280;43810;50.860;19.226;2023-07-13T01:25:37;98238.28;;;19.96;94.80
58018;BME280;43810;50.860;19.226;2023-07-13T01:28:05;98246.81;;;19.91;95.39
58018;BME280;43810;50.860;19.226;2023-07-13T01:30:31;98253.31;;;19.94;95.11
58018;BME280;43810;50.860;19.226;2023-07-13T01:32:58;98259.06;;;19.99;94.50
58018;BME280;43810;50.860;19.226;2023-07-13T01:35:24;98267.91;;;20.03;93.86
58018;BME280;43810;50.860;19.226;2023-07-13T01:37:53;98267.91;;;20.03;93.98
58018;BME280;43810;50.860;19.226;2023-07-13T01:40:19;98285.47;;;20.18;93.49
58018;BME280;43810;50.860;19.226;2023-07-13T01:42:46;98281.53;;;20.30;92.92
58018;BME280;43810;50.860;19.226;2023-07-13T01:45:11;98278.81;;;20.34;92.17
58018;BME280;43810;50.860;19.226;2023-07-13T01:47:37;98280.00;;;20.29;91.60
58018;BME280;43810;50.860;19.226;2023-07-13T01:50:03;98272.75;;;20.23;92.62
58018;BME280;43810;50.860;19.226;2023-07-13T01:52:29;98261.56;;;20.21;92.87
58018;BME280;43810;50.860;19.226;2023-07-13T01:54:55;98260.78;;;20.24;92.90
58018;BME280;43810;50.860;19.226;2023-07-13T01:57:21;98256.16;;;20.24;91.93
58018;BME280;43810;50.860;19.226;2023-07-13T01:59:47;98259.47;;;20.39;90.86
58018;BME280;43810;50.860;19.226;2023-07-13T02:02:13;98259.16;;;20.33;90.58
58018;BME280;43810;50.860;19.226;2023-07-13T02:04:38;98249.16;;;20.30;90.91
58018;BME280;43810;50.860;19.226;2023-07-13T02:07:04;98246.06;;;20.32;90.74
58018;BME280;43810;50.860;19.226;2023-07-13T02:09:30;98232.94;;;20.34;90.19
58018;BME280;43810;50.860;19.226;2023-07-13T02:11:56;98231.41;;;20.33;90.05
58018;BME280;43810;50.860;19.226;2023-07-13T02:14:22;98230.94;;;20.41;89.41
58018;BME280;43810;50.860;19.226;2023-07-13T02:16:48;98234.75;;;20.44;89.14
58018;BME280;43810;50.860;19.226;2023-07-13T02:19:14;98232.78;;;20.51;88.79
58018;BME280;43810;50.860;19.226;2023-07-13T02:21:40;98227.63;;;20.64;87.76
58018;BME280;43810;50.860;19.226;2023-07-13T02:24:06;98244.19;;;20.66;86.09
58018;BME280;43810;50.860;19.226;2023-07-13T02:26:32;98248.50;;;20.60;86.44
58018;BME280;43810;50.860;19.226;2023-07-13T02:28:57;98233.69;;;20.38;87.63
58018;BME280;43810;50.860;19.226;2023-07-13T02:31:23;98234.91;;;20.30;88.01
58018;BME280;43810;50.860;19.226;2023-07-13T02:33:49;98236.13;;;20.25;88.14
58018;BME280;43810;50.860;19.226;2023-07-13T02:36:15;98243.88;;;20.16;88.59
58018;BME280;43810;50.860;19.226;2023-07-13T02:38:42;98243.50;;;20.17;88.33
58018;BME280;43810;50.860;19.226;2023-07-13T02:41:08;98236.53;;;20.20;88.29
58018;BME280;43810;50.860;19.226;2023-07-13T02:43:35;98245.81;;;20.15;87.99
58018;BME280;43810;50.860;19.226;2023-07-13T02:46:02;98237.13;;;20.38;87.38
58018;BME280;43810;50.860;19.226;2023-07-13T02:48:33;98222.91;;;20.34;87.65
58018;BME280;43810;50.860;19.226;2023-07-13T02:50:59;98220.72;;;20.22;88.41
58018;BME280;43810;50.860;19.226;2023-07-13T02:53:25;98217.63;;;20.24;89.14
58018;BME280;43810;50.860;19.226;2023-07-13T02:55:51;98249.00;;;20.48;87.62
58018;BME280;43810;50.860;19.226;2023-07-13T02:58:16;98263.81;;;20.70;85.56
58018;BME280;43810;50.860;19.226;2023-07-13T03:00:44;98275.50;;;20.60;85.12
58018;BME280;43810;50.860;19.226;2023-07-13T03:03:12;98274.84;;;20.45;86.25
58018;BME280;43810;50.860;19.226;2023-07-13T03:05:41;98288.63;;;20.13;88.28
58018;BME280;43810;50.860;19.226;2023-07-13T03:08:11;98282.34;;;19.79;89.60
58018;BME280;43810;50.860;19.226;2023-07-13T03:10:37;98286.44;;;19.32;92.17
58018;BME280;43810;50.860;19.226;2023-07-13T03:13:05;98283.47;;;19.01;93.47
58018;BME280;43810;50.860;19.226;2023-07-13T03:15:31;98262.44;;;18.54;95.06
58018;BME280;43810;50.860;19.226;2023-07-13T03:17:56;98239.84;;;18.30;96.23
58018;BME280;43810;50.860;19.226;2023-07-13T03:20:22;98237.94;;;18.16;97.45
58018;BME280;43810;50.860;19.226;2023-07-13T03:22:48;98234.47;;;18.12;98.83
58018;BME280;43810;50.860;19.226;2023-07-13T03:25:14;98246.38;;;18.22;98.68
58018;BME280;43810;50.860;19.226;2023-07-13T03:27:40;98246.41;;;18.04;98.47
58018;BME280;43810;50.860;19.226;2023-07-13T03:30:06;98248.31;;;18.04;98.90
58018;BME280;43810;50.860;19.226;2023-07-13T03:32:32;98260.22;;;18.10;98.80
58018;BME280;43810;50.860;19.226;2023-07-13T03:34:58;98274.44;;;18.14;99.07
58018;BME280;43810;50.860;19.226;2023-07-13T03:37:24;98282.88;;;18.12;99.38
58018;BME280;43810;50.860;19.226;2023-07-13T03:39:50;98285.56;;;18.09;99.60
58018;BME280;43810;50.860;19.226;2023-07-13T03:42:16;98297.09;;;18.13;99.93
58018;BME280;43810;50.860;19.226;2023-07-13T03:44:42;98275.56;;;18.13;100.00
58018;BME280;43810;50.860;19.226;2023-07-13T03:47:11;98269.44;;;18.05;99.93
58018;BME280;43810;50.860;19.226;2023-07-13T03:49:37;98270.22;;;18.06;100.00
58018;BME280;43810;50.860;19.226;2023-07-13T03:52:03;98263.28;;;18.08;100.00
58018;BME280;43810;50.860;19.226;2023-07-13T03:54:29;98245.25;;;17.94;100.00
58018;BME280;43810;50.860;19.226;2023-07-13T03:56:56;98224.91;;;17.83;100.00
58018;BME280;43810;50.860;19.226;2023-07-13T03:59:22;98215.69;;;17.77;100.00
58018;BME280;43810;50.860;19.226;2023-07-13T04:01:47;98212.63;;;17.78;99.33
58018;BME280;43810;50.860;19.226;2023-07-13T04:04:13;98202.25;;;17.80;98.93
58018;BME280;43810;50.860;19.226;2023-07-13T04:06:40;98204.16;;;17.76;98.64
58018;BME280;43810;50.860;19.226;2023-07-13T04:09:06;98199.56;;;17.80;100.00
58018;BME280;43810;50.860;19.226;2023-07-13T04:11:32;98197.63;;;17.77;100.00
58018;BME280;43810;50.860;19.226;2023-07-13T04:13:59;98195.72;;;17.74;100.00
58018;BME280;43810;50.860;19.226;2023-07-13T04:16:25;98191.88;;;17.75;100.00
58018;BME280;43810;50.860;19.226;2023-07-13T04:18:52;98186.91;;;17.84;100.00
58018;BME280;43810;50.860;19.226;2023-07-13T04:21:24;98197.25;;;17.93;100.00
58018;BME280;43810;50.860;19.226;2023-07-13T04:23:50;98189.59;;;17.95;100.00
58018;BME280;43810;50.860;19.226;2023-07-13T04:26:16;98197.63;;;17.98;100.00
58018;BME280;43810;50.860;19.226;2023-07-13T04:28:42;98193.78;;;18.03;100.00
58018;BME280;43810;50.860;19.226;2023-07-13T04:31:08;98207.59;;;18.12;100.00
58018;BME280;43810;50.860;19.226;2023-07-13T04:33:34;98214.09;;;18.22;100.00
58018;BME280;43810;50.860;19.226;2023-07-13T04:35:59;98227.53;;;18.32;100.00
58018;BME280;43810;50.860;19.226;2023-07-13T04:38:29;98234.47;;;18.30;99.32
58018;BME280;43810;50.860;19.226;2023-07-13T04:41:00;98241.78;;;18.29;99.01
58018;BME280;43810;50.860;19.226;2023-07-13T04:43:27;98250.59;;;18.41;99.21
58018;BME280;43810;50.860;19.226;2023-07-13T04:45:53;98245.56;;;18.50;99.22
58018;BME280;43810;50.860;19.226;2023-07-13T04:48:20;98252.84;;;18.56;99.21
58018;BME280;43810;50.860;19.226;2023-07-13T04:50:46;98257.84;;;18.65;99.68
58018;BME280;43810;50.860;19.226;2023-07-13T04:53:13;98252.03;;;18.77;99.68
58018;BME280;43810;50.860;19.226;2023-07-13T04:55:39;98241.22;;;18.91;99.69
58018;BME280;43810;50.860;19.226;2023-07-13T04:58:05;98246.94;;;19.04;99.14
58018;BME280;43810;50.860;19.226;2023-07-13T05:00:31;98242.66;;;19.14;98.70
58018;BME280;43810;50.860;19.226;2023-07-13T05:02:57;98246.09;;;19.21;98.55
58018;BME280;43810;50.860;19.226;2023-07-13T05:05:24;98248.75;;;19.25;98.90
58018;BME280;43810;50.860;19.226;2023-07-13T05:07:51;98252.91;;;19.36;98.87
58018;BME280;43810;50.860;19.226;2023-07-13T05:10:17;98237.09;;;19.45;98.80
58018;BME280;43810;50.860;19.226;2023-07-13T05:12:43;98228.28;;;19.38;98.04
58018;BME280;43810;50.860;19.226;2023-07-13T05:15:09;98239.72;;;19.56;97.89
58018;BME280;43810;50.860;19.226;2023-07-13T05:17:35;98250.78;;;19.72;97.59
58018;BME280;43810;50.860;19.226;2023-07-13T05:20:01;98255.31;;;19.86;97.32
58018;BME280;43810;50.860;19.226;2023-07-13T05:22:27;98245.59;;;19.96;96.54
58018;BME280;43810;50.860;19.226;2023-07-13T05:24:52;98246.56;;;20.20;95.68
58018;BME280;43810;50.860;19.226;2023-07-13T05:27:18;98255.19;;;20.48;94.60
58018;BME280;43810;50.860;19.226;2023-07-13T05:29:44;98266.28;;;20.92;93.07
58018;BME280;43810;50.860;19.226;2023-07-13T05:32:10;98267.34;;;21.28;91.38
58018;BME280;43810;50.860;19.226;2023-07-13T05:34:35;98274.94;;;21.67;89.44
58018;BME280;43810;50.860;19.226;2023-07-13T05:37:01;98280.94;;;22.05;89.01
58018;BME280;43810;50.860;19.226;2023-07-13T05:39:27;98275.91;;;22.30;87.53
58018;BME280;43810;50.860;19.226;2023-07-13T05:41:53;98285.06;;;22.37;87.27
58018;BME280;43810;50.860;19.226;2023-07-13T05:44:19;98284.66;;;22.38;83.82
58018;BME280;43810;50.860;19.226;2023-07-13T05:46:45;98281.47;;;22.43;82.51
58018;BME280;43810;50.860;19.226;2023-07-13T05:49:11;98266.97;;;22.53;82.60
58018;BME280;43810;50.860;19.226;2023-07-13T05:51:37;98268.47;;;22.78;83.77
58018;BME280;43810;50.860;19.226;2023-07-13T05:54:03;98265.81;;;22.94;80.81
58018;BME280;43810;50.860;19.226;2023-07-13T05:56:29;98256.31;;;23.06;79.85
58018;BME280;43810;50.860;19.226;2023-07-13T05:58:56;98263.31;;;23.23;79.52
58018;BME280;43810;50.860;19.226;2023-07-13T06:01:22;98260.84;;;23.48;80.15
58018;BME280;43810;50.860;19.226;2023-07-13T06:03:49;98267.19;;;23.74;78.81
58018;BME280;43810;50.860;19.226;2023-07-13T06:06:15;98259.69;;;23.82;79.42
58018;BME280;43810;50.860;19.226;2023-07-13T06:08:41;98266.91;;;23.88;77.81
58018;BME280;43810;50.860;19.226;2023-07-13T06:11:14;98253.50;;;23.97;77.23
58018;BME280;43810;50.860;19.226;2023-07-13T06:13:40;98250.44;;;23.79;78.44
58018;BME280;43810;50.860;19.226;2023-07-13T06:16:06;98245.44;;;23.78;76.49
58018;BME280;43810;50.860;19.226;2023-07-13T06:18:33;98245.19;;;23.72;77.43
58018;BME280;43810;50.860;19.226;2023-07-13T06:21:00;98239.31;;;23.73;79.02
58018;BME280;43810;50.860;19.226;2023-07-13T06:23:31;98234.34;;;23.72;78.44
58018;BME280;43810;50.860;19.226;2023-07-13T06:25:57;98242.13;;;24.02;79.92
58018;BME280;43810;50.860;19.226;2023-07-13T06:28:23;98247.97;;;24.17;78.45
58018;BME280;43810;50.860;19.226;2023-07-13T06:30:49;98254.13;;;24.50;77.68
58018;BME280;43810;50.860;19.226;2023-07-13T06:33:15;98260.03;;;24.61;75.96
58018;BME280;43810;50.860;19.226;2023-07-13T06:35:42;98264.84;;;24.70;75.60
58018;BME280;43810;50.860;19.226;2023-07-13T06:38:08;98259.53;;;24.79;75.61
58018;BME280;43810;50.860;19.226;2023-07-13T06:40:34;98278.50;;;24.95;76.07
58018;BME280;43810;50.860;19.226;2023-07-13T06:43:00;98280.03;;;24.96;73.41
58018;BME280;43810;50.860;19.226;2023-07-13T06:45:25;98285.00;;;24.85;73.10
58018;BME280;43810;50.860;19.226;2023-07-13T06:47:53;98279.06;;;24.61;73.34
58018;BME280;43810;50.860;19.226;2023-07-13T06:50:19;98280.44;;;24.53;74.99
58018;BME280;43810;50.860;19.226;2023-07-13T06:52:45;98279.81;;;24.62;75.34
58018;BME280;43810;50.860;19.226;2023-07-13T06:55:11;98291.22;;;24.86;76.48
58018;BME280;43810;50.860;19.226;2023-07-13T06:57:39;98286.25;;;24.97;74.85
58018;BME280;43810;50.860;19.226;2023-07-13T07:00:06;98289.16;;;25.02;74.79
58018;BME280;43810;50.860;19.226;2023-07-13T07:02:32;98297.00;;;25.00;74.41
58018;BME280;43810;50.860;19.226;2023-07-13T07:04:58;98298.06;;;24.90;71.36
58018;BME280;43810;50.860;19.226;2023-07-13T07:07:24;98297.56;;;25.08;68.38
58018;BME280;43810;50.860;19.226;2023-07-13T07:09:51;98293.31;;;25.07;70.49
58018;BME280;43810;50.860;19.226;2023-07-13T07:12:16;98297.88;;;24.68;70.96
58018;BME280;43810;50.860;19.226;2023-07-13T07:14:42;98297.59;;;24.79;72.25
58018;BME280;43810;50.860;19.226;2023-07-13T07:17:08;98299.91;;;25.22;70.98
58018;BME280;43810;50.860;19.226;2023-07-13T07:19:34;98298.47;;;25.17;68.07
58018;BME280;43810;50.860;19.226;2023-07-13T07:22:00;98301.06;;;24.51;72.46
58018;BME280;43810;50.860;19.226;2023-07-13T07:24:26;98304.50;;;24.96;74.63
58018;BME280;43810;50.860;19.226;2023-07-13T07:26:52;98315.03;;;24.94;72.80
58018;BME280;43810;50.860;19.226;2023-07-13T07:29:18;98320.97;;;24.60;74.44
58018;BME280;43810;50.860;19.226;2023-07-13T07:31:44;98329.31;;;24.37;76.41
58018;BME280;43810;50.860;19.226;2023-07-13T07:34:10;98337.72;;;23.74;nan
58018;BME280;43810;50.860;19.226;2023-07-13T07:36:36;98338.47;;;23.58;79.18
58018;BME280;43810;50.860;19.226;2023-07-13T07:39:02;98340.25;;;23.09;80.99
58018;BME280;43810;50.860;19.226;2023-07-13T07:41:27;98346.22;;;23.00;82.96
58018;BME280;43810;50.860;19.226;2023-07-13T07:43:56;98364.38;;;22.80;84.11
58018;BME280;43810;50.860;19.226;2023-07-13T07:46:22;98354.34;;;22.77;84.87
58018;BME280;43810;50.860;19.226;2023-07-13T07:48:48;98353.44;;;23.07;83.59
58018;BME280;43810;50.860;19.226;2023-07-13T07:51:14;98354.34;;;23.00;85.07
58018;BME280;43810;50.860;19.226;2023-07-13T07:53:40;98355.72;;;23.28;82.68
58018;BME280;43810;50.860;19.226;2023-07-13T07:56:05;98344.03;;;23.51;82.00
58018;BME280;43810;50.860;19.226;2023-07-13T07:58:31;98347.72;;;23.61;80.83
58018;BME280;43810;50.860;19.226;2023-07-13T08:01:05;98346.59;;;23.58;80.69
58018;BME280;43810;50.860;19.226;2023-07-13T08:03:34;98343.53;;;23.56;81.68
58018;BME280;43810;50.860;19.226;2023-07-13T08:06:00;98348.19;;;23.75;80.12
58018;BME280;43810;50.860;19.226;2023-07-13T08:08:26;98352.34;;;23.80;81.64
58018;BME280;43810;50.860;19.226;2023-07-13T08:10:52;98350.63;;;23.70;80.51
58018;BME280;43810;50.860;19.226;2023-07-13T08:13:19;98344.53;;;23.46;82.22
58018;BME280;43810;50.860;19.226;2023-07-13T08:15:46;98345.38;;;23.23;81.99
58018;BME280;43810;50.860;19.226;2023-07-13T08:18:12;98350.28;;;22.89;79.68
58018;BME280;43810;50.860;19.226;2023-07-13T08:20:40;98353.41;;;22.17;81.71
58018;BME280;43810;50.860;19.226;2023-07-13T08:23:10;98359.13;;;21.96;81.12
58018;BME280;43810;50.860;19.226;2023-07-13T08:25:36;98351.41;;;21.68;82.82
58018;BME280;43810;50.860;19.226;2023-07-13T08:28:03;98361.44;;;21.40;82.72
58018;BME280;43810;50.860;19.226;2023-07-13T08:30:29;98365.16;;;21.16;80.58
58018;BME280;43810;50.860;19.226;2023-07-13T08:32:57;98357.19;;;21.02;79.71
58018;BME280;43810;50.860;19.226;2023-07-13T08:35:23;98370.25;;;20.73;82.05
58018;BME280;43810;50.860;19.226;2023-07-13T08:37:52;98357.19;;;20.64;81.85
58018;BME280;43810;50.860;19.226;2023-07-13T08:40:24;98365.66;;;20.66;82.55
58018;BME280;43810;50.860;19.226;2023-07-13T08:42:57;98376.06;;;20.64;82.13
58018;BME280;43810;50.860;19.226;2023-07-13T08:50:51;98384.06;;;20.75;80.80
58018;BME280;43810;50.860;19.226;2023-07-13T08:53:20;98387.00;;;20.50;79.87
58018;BME280;43810;50.860;19.226;2023-07-13T08:55:58;98384.03;;;20.34;79.71
58018;BME280;43810;50.860;19.226;2023-07-13T08:58:25;98385.63;;;20.24;79.22
58018;BME280;43810;50.860;19.226;2023-07-13T09:03:54;98386.69;;;19.78;81.02
58018;BME280;43810;50.860;19.226;2023-07-13T09:06:30;98392.88;;;19.72;82.17
58018;BME280;43810;50.860;19.226;2023-07-13T09:15:05;98398.69;;;19.67;80.07
58018;BME280;43810;50.860;19.226;2023-07-13T09:17:48;98396.00;;;19.56;79.31
58018;BME280;43810;50.860;19.226;2023-07-13T09:20:25;98399.50;;;19.53;79.81
58018;BME280;43810;50.860;19.226;2023-07-13T09:22:56;98414.50;;;19.51;79.90
58018;BME280;43810;50.860;19.226;2023-07-13T09:27:55;98426.94;;;19.05;80.40
58018;BME280;43810;50.860;19.226;2023-07-13T09:30:34;98425.41;;;19.01;78.77
58018;BME280;43810;50.860;19.226;2023-07-13T09:33:04;98435.81;;;18.78;79.81
58018;BME280;43810;50.860;19.226;2023-07-13T09:35:30;98445.41;;;18.68;80.55
58018;BME280;43810;50.860;19.226;2023-07-13T09:38:11;98444.28;;;18.69;79.01
58018;BME280;43810;50.860;19.226;2023-07-13T09:43:14;98444.63;;;18.46;81.69
58018;BME280;43810;50.860;19.226;2023-07-13T09:45:44;98445.38;;;18.43;83.31
58018;BME280;43810;50.860;19.226;2023-07-13T09:48:12;98441.88;;;18.21;85.00
58018;BME280;43810;50.860;19.226;2023-07-13T09:50:47;98446.13;;;18.19;82.71
58018;BME280;43810;50.860;19.226;2023-07-13T09:53:18;98447.59;;;17.98;84.61
58018;BME280;43810;50.860;19.226;2023-07-13T09:55:48;98449.06;;;17.71;87.73
58018;BME280;43810;50.860;19.226;2023-07-13T09:58:24;98457.75;;;17.54;86.42
58018;BME280;43810;50.860;19.226;2023-07-13T10:00:59;98465.28;;;17.27;89.15
58018;BME280;43810;50.860;19.226;2023-07-13T10:03:27;98467.91;;;17.16;89.98
58018;BME280;43810;50.860;19.226;2023-07-13T10:05:54;98467.84;;;17.06;91.01
58018;BME280;43810;50.860;19.226;2023-07-13T10:08:29;98477.75;;;16.98;90.87
58018;BME280;43810;50.860;19.226;2023-07-13T10:11:11;98492.97;;;16.83;91.17
58018;BME280;43810;50.860;19.226;2023-07-13T10:13:42;98503.28;;;16.78;91.16
58018;BME280;43810;50.860;19.226;2023-07-13T10:16:10;98493.38;;;16.48;93.73
58018;BME280;43810;50.860;19.226;2023-07-13T10:18:51;98498.69;;;16.41;94.31
58018;BME280;43810;50.860;19.226;2023-07-13T10:21:25;98499.09;;;16.43;94.78
58018;BME280;43810;50.860;19.226;2023-07-13T10:24:06;98489.84;;;16.37;95.82
58018;BME280;43810;50.860;19.226;2023-07-13T10:26:37;98491.63;;;16.26;96.94
58018;BME280;43810;50.860;19.226;2023-07-13T10:29:11;98492.72;;;16.18;97.70
58018;BME280;43810;50.860;19.226;2023-07-13T10:31:40;98487.31;;;16.14;98.64
58018;BME280;43810;50.860;19.226;2023-07-13T10:34:11;98488.53;;;16.24;98.77
58018;BME280;43810;50.860;19.226;2023-07-13T10:36:42;98488.63;;;16.31;97.94
58018;BME280;43810;50.860;19.226;2023-07-13T10:39:26;98489.06;;;16.33;98.43
58018;BME280;43810;50.860;19.226;2023-07-13T10:42:01;98486.88;;;16.46;97.87
58018;BME280;43810;50.860;19.226;2023-07-13T10:44:31;98477.97;;;16.38;98.27
58018;BME280;43810;50.860;19.226;2023-07-13T10:47:18;98469.09;;;16.31;99.34
58018;BME280;43810;50.860;19.226;2023-07-13T10:49:44;98471.81;;;16.34;99.55
58018;BME280;43810;50.860;19.226;2023-07-13T10:52:42;98478.19;;;16.56;99.18
58018;BME280;43810;50.860;19.226;2023-07-13T10:55:35;98480.59;;;16.68;99.15
58018;BME280;43810;50.860;19.226;2023-07-13T10:58:24;98474.56;;;16.82;99.02
58018;BME280;43810;50.860;19.226;2023-07-13T11:03:36;98459.31;;;16.89;96.84
58018;BME280;43810;50.860;19.226;2023-07-13T11:06:40;98453.59;;;16.98;96.16
58018;BME280;43810;50.860;19.226;2023-07-13T11:11:59;98450.50;;;16.96;93.54
58018;BME280;43810;50.860;19.226;2023-07-13T11:15:27;98449.81;;;17.03;93.48
58018;BME280;43810;50.860;19.226;2023-07-13T11:17:34;98444.50;;;17.13;95.05
58018;BME280;43810;50.860;19.226;2023-07-13T11:22:46;98443.06;;;17.26;94.39
58018;BME280;43810;50.860;19.226;2023-07-13T11:25:33;98437.66;;;17.23;94.34
58018;BME280;43810;50.860;19.226;2023-07-13T11:30:47;98428.44;;;17.20;94.55
58018;BME280;43810;50.860;19.226;2023-07-13T11:33:20;98427.72;;;17.30;94.88
58018;BME280;43810;50.860;19.226;2023-07-13T11:38:36;98425.72;;;17.17;95.68
58018;BME280;43810;50.860;19.226;2023-07-13T11:43:38;98418.13;;;17.29;95.54
58018;BME280;43810;50.860;19.226;2023-07-13T11:46:21;98425.94;;;17.56;95.14
58018;BME280;43810;50.860;19.226;2023-07-13T11:48:47;98431.41;;;17.77;94.89
58018;BME280;43810;50.860;19.226;2023-07-13T11:51:26;98428.34;;;17.79;94.19
58018;BME280;43810;50.860;19.226;2023-07-13T11:53:55;98431.41;;;17.77;94.65
58018;BME280;43810;50.860;19.226;2023-07-13T11:56:24;98431.44;;;17.88;94.94
58018;BME280;43810;50.860;19.226;2023-07-13T11:58:54;98432.97;;;17.89;94.92
58018;BME280;43810;50.860;19.226;2023-07-13T12:01:23;98431.13;;;18.11;94.40
58018;BME280;43810;50.860;19.226;2023-07-13T12:03:51;98441.91;;;18.25;93.52
58018;BME280;43810;50.860;19.226;2023-07-13T12:06:32;98444.22;;;18.37;92.21
58018;BME280;43810;50.860;19.226;2023-07-13T12:09:00;98451.53;;;18.47;91.77
58018;BME280;43810;50.860;19.226;2023-07-13T12:11:29;98459.59;;;18.54;91.20
58018;BME280;43810;50.860;19.226;2023-07-13T12:13:55;98478.50;;;18.83;90.24
58018;BME280;43810;50.860;19.226;2023-07-13T12:16:28;98482.31;;;19.14;89.38
58018;BME280;43810;50.860;19.226;2023-07-13T12:18:55;98493.44;;;19.40;87.19
58018;BME280;43810;50.860;19.226;2023-07-13T12:21:29;98499.22;;;19.28;86.68
58018;BME280;43810;50.860;19.226;2023-07-13T12:23:55;98495.81;;;18.99;87.92
58018;BME280;43810;50.860;19.226;2023-07-13T12:26:21;98496.19;;;18.94;88.77
58018;BME280;43810;50.860;19.226;2023-07-13T12:28:51;98495.41;;;18.90;88.60
58018;BME280;43810;50.860;19.226;2023-07-13T12:31:32;98506.56;;;18.75;90.00
58018;BME280;43810;50.860;19.226;2023-07-13T12:37:01;98505.78;;;18.67;89.44
58018;BME280;43810;50.860;19.226;2023-07-13T12:39:37;98499.97;;;18.58;92.10
58018;BME280;43810;50.860;19.226;2023-07-13T12:42:25;98492.34;;;18.85;90.38
58018;BME280;43810;50.860;19.226;2023-07-13T12:44:58;98485.00;;;18.89;91.47
58018;BME280;43810;50.860;19.226;2023-07-13T12:47:29;98491.97;;;19.11;90.33
58018;BME280;43810;50.860;19.226;2023-07-13T12:49:59;98492.31;;;19.20;88.30
58018;BME280;43810;50.860;19.226;2023-07-13T12:52:34;98505.41;;;19.04;90.25
58018;BME280;43810;50.860;19.226;2023-07-13T12:55:26;98517.72;;;19.05;87.85
58018;BME280;43810;50.860;19.226;2023-07-13T12:57:58;98514.63;;;18.89;88.90
58018;BME280;43810;50.860;19.226;2023-07-13T13:00:33;98515.41;;;18.93;90.55
58018;BME280;43810;50.860;19.226;2023-07-13T13:03:05;98516.94;;;18.94;89.64
58018;BME280;43810;50.860;19.226;2023-07-13T13:05:32;98516.56;;;18.92;89.77
58018;BME280;43810;50.860;19.226;2023-07-13T13:08:01;98516.16;;;19.00;89.87
58018;BME280;43810;50.860;19.226;2023-07-13T13:10:27;98514.66;;;18.96;88.58
58018;BME280;43810;50.860;19.226;2023-07-13T13:12:53;98511.19;;;19.09;89.10
58018;BME280;43810;50.860;19.226;2023-07-13T13:15:19;98507.31;;;19.32;88.05
58018;BME280;43810;50.860;19.226;2023-07-13T13:17:46;98510.34;;;19.59;89.30
58018;BME280;43810;50.860;19.226;2023-07-13T13:20:20;98519.09;;;19.98;86.36
58018;BME280;43810;50.860;19.226;2023-07-13T13:22:46;98511.22;;;20.36;86.45
58018;BME280;43810;50.860;19.226;2023-07-13T13:25:14;98510.28;;;20.64;84.83
58018;BME280;43810;50.860;19.226;2023-07-13T13:27:41;98515.38;;;21.03;84.89
58018;BME280;43810;50.860;19.226;2023-07-13T13:30:15;98525.94;;;21.31;81.86
58018;BME280;43810;50.860;19.226;2023-07-13T13:32:42;98514.34;;;21.38;80.64
58018;BME280;43810;50.860;19.226;2023-07-13T13:35:16;98515.19;;;21.28;81.46
58018;BME280;43810;50.860;19.226;2023-07-13T13:37:43;98524.47;;;21.23;81.97
58018;BME280;43810;50.860;19.226;2023-07-13T13:40:36;98522.41;;;21.41;79.93
58018;BME280;43810;50.860;19.226;2023-07-13T13:43:02;98529.09;;;21.26;79.95